Time;durP1;ratioP1;P1;durP2;ratioP2;P2;SDS_P1;SDS_P2;PMS_P1;PMS_P2;Temp;Humidity;BMP_temperature;BMP_pressure;BME280_temperature;BME280_humidity;BME280_pressure;Samples;Min_cycle;Max_cycle;Signal;HPM_P1;HPM_P2
2023/05/11 00:00:43;;;;;;;8.57;5.75;;;;;;;13.29;81.38;101090.34;5046042;28;20167;-53
2023/05/11 00:03:09;;;;;;;12.25;6.35;;;;;;;13.21;81.60;101095.19;5047621;28;20120;-53
2023/05/11 00:05:34;;;;;;;7.72;5.88;;;;;;;13.15;82.15;101091.03;5051883;28;20111;-52
2023/05/11 00:08:00;;;;;;;7.22;5.97;;;;;;;13.06;81.86;101098.59;5052210;28;20056;-53
2023/05/11 00:10:27;;;;;;;9.93;6.03;;;;;;;13.00;82.47;101095.31;5048814;28;20028;-53
2023/05/11 00:12:52;;;;;;;9.38;6.50;;;;;;;12.96;82.77;101095.53;5041814;28;20084;-53
2023/05/11 00:15:18;;;;;;;9.00;6.63;;;;;;;12.85;82.46;101096.09;5052515;28;20361;-53
2023/05/11 00:17:44;;;;;;;13.95;6.43;;;;;;;12.77;82.80;101098.28;5044561;28;20031;-53
2023/05/11 00:20:10;;;;;;;7.53;5.65;;;;;;;12.75;83.19;101097.47;5055101;28;20348;-53
2023/05/11 00:22:35;;;;;;;7.85;6.22;;;;;;;12.70;83.22;101092.41;5048075;28;20081;-53
2023/05/11 00:25:01;;;;;;;12.00;5.55;;;;;;;12.64;83.75;101098.88;5046195;28;20131;-53
2023/05/11 00:27:26;;;;;;;8.77;6.70;;;;;;;12.62;83.53;101095.44;5048846;28;20040;-53
2023/05/11 00:29:52;;;;;;;7.68;6.18;;;;;;;12.53;84.02;101095.88;5050666;28;20099;-52
2023/05/11 00:32:17;;;;;;;8.80;6.82;;;;;;;12.44;84.19;101083.94;5047163;28;20025;-53
2023/05/11 00:34:42;;;;;;;8.88;6.40;;;;;;;12.36;84.19;101087.84;5055101;28;20032;-53
2023/05/11 00:37:08;;;;;;;9.73;7.05;;;;;;;12.32;84.32;101091.59;5052309;28;20536;-53
2023/05/11 00:39:38;;;;;;;10.82;7.45;;;;;;;12.28;84.63;101085.59;5038538;28;20033;-53
2023/05/11 00:42:04;;;;;;;9.38;6.03;;;;;;;12.18;84.69;101085.16;5043038;28;20298;-53
2023/05/11 00:44:29;;;;;;;9.65;7.20;;;;;;;12.12;85.04;101085.44;5047396;28;20036;-53
2023/05/11 00:46:56;;;;;;;8.93;7.07;;;;;;;12.10;85.97;101082.03;5038216;28;20065;-53
2023/05/11 00:49:22;;;;;;;11.40;7.53;;;;;;;11.97;85.31;101088.81;5053848;28;20040;-53
2023/05/11 00:51:48;;;;;;;10.40;6.70;;;;;;;11.92;86.42;101087.22;5042592;28;20034;-53
2023/05/11 00:54:14;;;;;;;10.43;6.95;;;;;;;11.91;85.80;101088.16;5041197;28;20035;-53
2023/05/11 00:56:40;;;;;;;10.75;8.15;;;;;;;11.92;86.24;101079.28;5041826;28;20358;-53
2023/05/11 00:59:07;;;;;;;14.68;7.47;;;;;;;11.89;86.13;101079.38;5052312;28;20507;-53
2023/05/11 01:01:34;;;;;;;7.97;6.72;;;;;;;11.83;85.61;101079.66;5054559;28;20029;-53
2023/05/11 01:04:01;;;;;;;9.52;7.15;;;;;;;11.75;85.71;101084.44;5048671;28;20029;-55
2023/05/11 01:06:29;;;;;;;15.57;8.50;;;;;;;11.75;86.56;101085.34;5049486;28;20449;-52
2023/05/11 01:09:11;;;;;;;13.30;8.05;;;;;;;11.76;87.58;101083.53;5040519;28;20034;-52
2023/05/11 01:11:53;;;;;;;13.93;7.90;;;;;;;11.70;88.07;101081.16;5061567;28;20048;-52
2023/05/11 01:14:26;;;;;;;10.75;8.60;;;;;;;11.65;88.25;101080.50;5046159;28;20028;-52
2023/05/11 01:17:00;;;;;;;14.95;8.73;;;;;;;11.57;88.21;101081.72;5049131;28;20047;-52
2023/05/11 01:19:42;;;;;;;10.85;7.75;;;;;;;11.62;87.88;101085.94;5051236;28;20061;-52
2023/05/11 01:22:43;;;;;;;13.68;8.20;;;;;;;11.56;87.14;101087.94;5038036;28;20341;-52
2023/05/11 01:25:31;;;;;;;9.30;7.25;;;;;;;11.53;87.25;101080.13;5045913;28;20537;-52
2023/05/11 01:28:30;;;;;;;13.82;7.32;;;;;;;11.46;86.55;101085.75;5047506;28;20029;-52
2023/05/11 01:31:07;;;;;;;10.20;7.75;;;;;;;11.41;86.60;101083.31;5034869;28;20038;-52
2023/05/11 01:33:36;;;;;;;10.85;7.03;;;;;;;11.35;86.98;101088.88;5039654;28;20032;-55
2023/05/11 01:36:08;;;;;;;15.70;8.15;;;;;;;11.28;86.74;101076.81;5037696;28;20342;-54
2023/05/11 01:38:38;;;;;;;10.80;8.30;;;;;;;11.20;86.95;101088.59;5050003;28;20022;-55
2023/05/11 01:41:12;;;;;;;14.43;8.73;;;;;;;11.14;86.89;101080.94;5050434;28;20032;-52
2023/05/11 01:43:39;;;;;;;12.45;8.73;;;;;;;11.13;87.54;101095.09;5052006;28;20021;-55
2023/05/11 01:46:07;;;;;;;11.15;8.13;;;;;;;11.13;87.95;101095.09;5042676;28;20030;-53
2023/05/11 01:48:38;;;;;;;10.90;8.50;;;;;;;11.12;88.03;101101.31;5035409;28;20032;-55
2023/05/11 01:51:04;;;;;;;14.48;7.72;;;;;;;11.09;86.92;101104.06;5049089;28;20037;-53
2023/05/11 01:53:34;;;;;;;15.82;8.85;;;;;;;11.12;87.70;101103.94;5046766;28;20036;-54
2023/05/11 01:56:01;;;;;;;17.27;8.50;;;;;;;11.04;87.78;101095.47;5035038;28;20057;-53
2023/05/11 01:58:29;;;;;;;12.75;8.45;;;;;;;10.94;88.03;101099.44;5048787;28;20322;-53
2023/05/11 02:00:55;;;;;;;11.65;8.27;;;;;;;10.89;88.31;101096.13;5050633;28;20060;-54
2023/05/11 02:03:23;;;;;;;15.10;8.40;;;;;;;10.89;88.61;101096.13;5038511;28;20025;-54
2023/05/11 02:05:50;;;;;;;10.82;8.30;;;;;;;10.88;88.71;101104.97;5046256;28;20068;-53
2023/05/11 02:08:17;;;;;;;14.77;9.43;;;;;;;10.86;87.99;101101.53;5040833;28;20080;-53
2023/05/11 02:10:44;;;;;;;13.27;9.15;;;;;;;10.87;88.77;101108.53;5048573;28;20482;-53
2023/05/11 02:13:10;;;;;;;11.88;9.15;;;;;;;10.83;87.94;101108.66;5051526;28;20036;-53
2023/05/11 02:15:40;;;;;;;16.15;9.63;;;;;;;10.79;87.92;101122.94;5050779;28;20037;-53
2023/05/11 02:18:11;;;;;;;14.45;8.30;;;;;;;10.74;88.99;101111.69;5050530;28;20036;-53
2023/05/11 02:20:40;;;;;;;12.43;8.32;;;;;;;10.72;88.41;101110.88;5052392;28;20090;-53
2023/05/11 02:23:07;;;;;;;12.38;9.63;;;;;;;10.64;88.58;101112.97;5039071;28;20107;-53
2023/05/11 02:25:33;;;;;;;12.55;9.02;;;;;;;10.64;88.67;101118.25;5048574;28;20032;-53
2023/05/11 02:27:58;;;;;;;12.90;9.48;;;;;;;10.62;88.58;101106.91;5044522;28;20029;-53
2023/05/11 02:30:27;;;;;;;12.98;9.55;;;;;;;10.58;88.42;101115.88;5051698;28;20114;-53
2023/05/11 02:32:55;;;;;;;9.65;7.68;;;;;;;10.53;88.25;101116.06;5036025;28;20044;-53
2023/05/11 02:35:31;;;;;;;13.38;8.57;;;;;;;10.51;88.22;101117.91;5044498;28;20356;-54
2023/05/11 02:38:00;;;;;;;12.90;9.20;;;;;;;10.43;88.12;101120.84;5052806;28;20452;-54
2023/05/11 02:40:32;;;;;;;12.60;8.68;;;;;;;10.40;88.28;101118.31;5049353;28;20041;-53
2023/05/11 02:43:01;;;;;;;16.15;9.18;;;;;;;10.39;88.69;101121.03;5033804;28;20040;-54
2023/05/11 02:45:31;;;;;;;14.43;10.25;;;;;;;10.34;88.18;101115.91;5046762;28;20033;-53
2023/05/11 02:47:58;;;;;;;12.88;9.48;;;;;;;10.33;88.39;101121.25;5042617;28;20163;-55
2023/05/11 02:50:27;;;;;;;12.63;9.43;;;;;;;10.26;88.90;101128.53;5048223;28;20035;-54
2023/05/11 02:52:55;;;;;;;13.10;8.40;;;;;;;10.26;88.39;101125.88;5047131;28;20042;-54
2023/05/11 02:55:22;;;;;;;11.35;9.13;;;;;;;10.20;88.53;101115.53;5050816;28;20029;-53
2023/05/11 02:57:48;;;;;;;13.85;9.27;;;;;;;10.17;89.15;101123.59;5040673;28;20041;-54
2023/05/11 03:00:14;;;;;;;13.68;10.48;;;;;;;10.08;89.28;101124.81;5041539;28;20353;-54
2023/05/11 03:02:39;;;;;;;14.68;9.55;;;;;;;10.03;89.17;101121.47;5045487;28;20033;-55
2023/05/11 03:05:05;;;;;;;13.05;9.60;;;;;;;10.08;89.42;101123.00;5050946;28;20126;-54
2023/05/11 03:07:32;;;;;;;15.38;9.50;;;;;;;10.10;89.51;101118.56;5041431;28;20418;-54
2023/05/11 03:09:58;;;;;;;14.07;10.93;;;;;;;10.15;89.84;101122.78;5039146;28;20035;-54
2023/05/11 03:12:23;;;;;;;13.18;9.90;;;;;;;10.11;88.95;101122.03;5061362;28;20040;-54
2023/05/11 03:14:50;;;;;;;11.85;9.30;;;;;;;10.08;89.70;101120.38;5042583;28;20112;-54
2023/05/11 03:17:18;;;;;;;12.98;8.45;;;;;;;10.04;89.25;101120.56;5046129;28;20636;-54
2023/05/11 03:19:44;;;;;;;14.43;9.85;;;;;;;10.05;89.38;101125.78;5036649;28;20033;-54
2023/05/11 03:22:10;;;;;;;29.73;9.80;;;;;;;10.01;88.69;101124.16;5037293;28;20059;-54
2023/05/11 03:24:37;;;;;;;13.18;10.23;;;;;;;9.94;89.01;101125.34;5045394;28;20125;-54
2023/05/11 03:27:04;;;;;;;12.57;9.95;;;;;;;9.92;88.92;101113.94;5044607;28;20072;-54
2023/05/11 03:29:31;;;;;;;13.95;9.60;;;;;;;9.94;89.67;101122.69;5052051;28;20342;-54
2023/05/11 03:31:57;;;;;;;17.50;11.07;;;;;;;9.93;89.13;101120.97;5061920;28;20025;-54
2023/05/11 03:34:22;;;;;;;16.27;11.15;;;;;;;9.89;89.43;101114.09;5055988;28;20116;-54
2023/05/11 03:36:49;;;;;;;12.65;10.05;;;;;;;9.87;89.48;101114.13;5047914;28;20037;-52
2023/05/11 03:39:16;;;;;;;12.27;9.43;;;;;;;9.84;89.48;101116.88;5047201;28;20113;-55
2023/05/11 03:41:44;;;;;;;12.60;9.55;;;;;;;9.87;89.51;101115.91;5046710;28;20116;-52
2023/05/11 03:44:12;;;;;;;17.42;10.70;;;;;;;9.91;89.00;101121.00;5046773;28;20025;-52
2023/05/11 03:46:40;;;;;;;14.68;9.65;;;;;;;9.91;88.52;101122.81;5053856;28;20029;-53
2023/05/11 03:49:07;;;;;;;14.20;10.38;;;;;;;9.88;89.20;101122.91;5064267;28;20029;-53
2023/05/11 03:51:34;;;;;;;14.43;10.93;;;;;;;9.87;88.80;101121.19;5050230;28;20061;-55
2023/05/11 03:54:00;;;;;;;12.52;10.15;;;;;;;9.87;89.13;101115.91;5048049;28;20565;-52
2023/05/11 03:56:26;;;;;;;14.52;11.27;;;;;;;9.87;89.31;101110.63;5047311;28;20049;-54
2023/05/11 03:58:52;;;;;;;14.52;10.75;;;;;;;9.92;89.29;101120.09;5047371;28;20087;-53
2023/05/11 04:01:17;;;;;;;15.48;11.98;;;;;;;9.93;89.03;101115.69;5069706;28;20090;-53
2023/05/11 04:03:50;;;;;;;17.58;10.55;;;;;;;9.94;89.05;101117.41;5050363;28;20033;-53
2023/05/11 04:06:16;;;;;;;16.70;11.48;;;;;;;9.95;88.61;101121.75;5046041;28;20029;-53
2023/05/11 04:08:42;;;;;;;15.68;10.73;;;;;;;9.95;88.66;101121.75;5051943;28;20022;-53
2023/05/11 04:11:08;;;;;;;20.30;12.85;;;;;;;9.98;88.62;101126.94;5045891;28;20098;-54
2023/05/11 04:13:33;;;;;;;17.02;12.85;;;;;;;10.08;88.90;101130.94;5048038;28;20037;-53
2023/05/11 04:15:58;;;;;;;17.02;12.05;;;;;;;10.14;88.24;101129.00;5042339;28;20036;-54
2023/05/11 04:18:24;;;;;;;15.95;12.63;;;;;;;10.25;88.38;101126.81;5044007;28;20030;-54
2023/05/11 04:20:49;;;;;;;20.90;12.80;;;;;;;10.32;87.20;101124.81;5054686;28;20033;-53
2023/05/11 04:23:15;;;;;;;17.15;12.82;;;;;;;10.42;86.14;101134.13;5046597;28;20040;-54
2023/05/11 04:25:40;;;;;;;15.18;12.18;;;;;;;10.44;85.45;101133.13;5045308;28;20030;-54
2023/05/11 04:28:05;;;;;;;17.92;12.10;;;;;;;10.48;85.18;101123.31;5047762;28;20037;-53
2023/05/11 04:30:31;;;;;;;16.13;11.13;;;;;;;10.53;85.33;101136.34;5048531;28;20041;-53
2023/05/11 04:32:56;;;;;;;14.95;11.15;;;;;;;10.55;84.05;101134.50;5050443;28;20037;-53
2023/05/11 04:35:23;;;;;;;16.05;11.70;;;;;;;10.60;84.17;101143.97;5056485;28;20033;-54
2023/05/11 04:37:48;;;;;;;15.10;11.80;;;;;;;10.62;83.14;101136.81;5062614;28;20110;-54
2023/05/11 04:40:14;;;;;;;16.17;10.13;;;;;;;10.65;82.63;101135.84;5051624;28;20425;-54
2023/05/11 04:42:39;;;;;;;18.90;12.52;;;;;;;10.69;81.91;101141.88;5052019;28;20025;-54
2023/05/11 04:45:05;;;;;;;15.77;11.05;;;;;;;10.70;81.25;101139.16;5047751;28;20037;-54
2023/05/11 04:47:31;;;;;;;14.27;9.90;;;;;;;10.75;80.84;101147.78;5043435;28;20409;-54
2023/05/11 04:49:56;;;;;;;12.88;10.88;;;;;;;10.80;80.40;101145.81;5054882;28;21406;-54
2023/05/11 04:52:21;;;;;;;12.80;10.48;;;;;;;10.87;79.33;101146.44;5051919;28;20037;-54
2023/05/11 04:54:47;;;;;;;12.80;9.55;;;;;;;10.95;79.06;101149.63;5039473;28;20028;-55
2023/05/11 04:57:12;;;;;;;13.45;10.15;;;;;;;10.95;78.25;101149.63;5047271;28;20360;-54
2023/05/11 04:59:37;;;;;;;11.93;9.25;;;;;;;11.03;78.20;101157.22;5044019;28;20012;-53
2023/05/11 05:02:03;;;;;;;16.00;10.50;;;;;;;11.04;77.95;101148.38;5044641;28;20587;-53
2023/05/11 05:04:28;;;;;;;19.20;10.57;;;;;;;11.12;77.32;101148.94;5045743;28;20032;-53
2023/05/11 05:06:54;;;;;;;29.08;9.70;;;;;;;11.15;76.16;101146.16;5046659;28;20188;-53
2023/05/11 05:09:19;;;;;;;11.20;9.50;;;;;;;11.19;76.14;101152.19;5041999;28;20033;-53
2023/05/11 05:11:45;;;;;;;12.77;8.75;;;;;;;11.30;75.94;101154.38;5039130;28;20133;-54
2023/05/11 05:14:10;;;;;;;16.75;9.93;;;;;;;11.36;75.45;101154.09;5052839;28;20029;-54
2023/05/11 05:16:35;;;;;;;13.07;8.73;;;;;;;11.43;75.27;101155.56;5041154;28;20038;-54
2023/05/11 05:19:01;;;;;;;17.23;9.48;;;;;;;11.48;75.62;101150.09;5046056;28;20080;-53
2023/05/11 05:21:26;;;;;;;11.77;8.52;;;;;;;11.58;74.76;101160.19;5051878;28;20029;-54
2023/05/11 05:23:51;;;;;;;10.30;8.30;;;;;;;11.69;73.86;101150.94;5046255;28;20029;-54
2023/05/11 05:26:17;;;;;;;12.32;9.20;;;;;;;11.75;73.29;101155.94;5046735;28;20063;-54
2023/05/11 05:28:42;;;;;;;18.58;9.90;;;;;;;11.84;72.78;101150.25;5041753;28;20156;-54
2023/05/11 05:31:08;;;;;;;12.43;9.07;;;;;;;11.93;72.24;101157.84;5042264;28;20458;-53
2023/05/11 05:33:33;;;;;;;13.38;8.35;;;;;;;12.00;72.65;101163.72;5035738;28;20033;-53
2023/05/11 05:35:58;;;;;;;9.98;8.43;;;;;;;12.07;71.89;101159.00;5042916;28;20317;-54
2023/05/11 05:38:24;;;;;;;9.05;7.35;;;;;;;12.15;71.33;101164.81;5046127;28;20443;-53
2023/05/11 05:40:49;;;;;;;13.20;7.85;;;;;;;12.24;70.87;101169.69;5045105;28;20029;-54
2023/05/11 05:43:15;;;;;;;10.57;8.25;;;;;;;12.32;70.04;101165.81;5047935;28;20105;-55
2023/05/11 05:45:40;;;;;;;13.15;8.18;;;;;;;12.42;69.38;101167.09;5046986;28;20063;-53
2023/05/11 05:48:05;;;;;;;13.55;8.10;;;;;;;12.50;68.98;101167.59;5045590;28;20029;-53
2023/05/11 05:50:31;;;;;;;11.68;7.60;;;;;;;12.58;69.03;101168.09;5054769;28;20025;-53
2023/05/11 05:52:57;;;;;;;8.38;7.10;;;;;;;12.63;68.34;101166.09;5050566;28;20029;-53
2023/05/11 05:55:22;;;;;;;12.65;7.32;;;;;;;12.78;68.22;101179.56;5041949;28;20049;-53
2023/05/11 05:57:48;;;;;;;11.63;6.72;;;;;;;12.95;67.89;101176.94;5043873;28;20037;-53
2023/05/11 06:00:14;;;;;;;12.43;8.00;;;;;;;13.06;67.54;101170.25;5052989;28;20025;-53
2023/05/11 06:02:40;;;;;;;10.60;7.97;;;;;;;13.14;66.77;101178.69;5057536;28;20174;-52
2023/05/11 06:05:06;;;;;;;18.55;6.50;;;;;;;13.25;66.67;101173.69;5060171;28;20052;-53
2023/05/11 06:07:32;;;;;;;10.13;7.35;;;;;;;13.39;66.30;101175.72;5057886;28;20036;-53
2023/05/11 06:09:58;;;;;;;9.77;6.47;;;;;;;13.44;65.05;101180.75;5049802;28;20017;-53
2023/05/11 06:12:23;;;;;;;9.05;6.45;;;;;;;13.55;65.10;101176.66;5034854;28;20044;-53
2023/05/11 06:14:48;;;;;;;13.23;6.25;;;;;;;13.68;64.74;101176.00;5043219;28;20336;-53
2023/05/11 06:17:14;;;;;;;10.63;6.40;;;;;;;13.85;64.78;101177.78;5046829;28;20091;-53
2023/05/11 06:19:39;;;;;;;9.02;6.35;;;;;;;13.98;63.52;101180.63;5043719;28;20045;-54
2023/05/11 06:22:05;;;;;;;13.23;6.47;;;;;;;14.18;63.29;101174.28;5033895;28;20040;-52
2023/05/11 06:24:30;;;;;;;8.38;6.05;;;;;;;14.30;62.38;101178.91;5040987;28;20029;-53
2023/05/11 06:26:56;;;;;;;8.13;5.93;;;;;;;14.46;61.60;101177.13;5042924;28;20033;-53
2023/05/11 06:29:21;;;;;;;13.52;5.65;;;;;;;14.55;61.67;101188.19;5046882;28;20028;-52
2023/05/11 06:31:51;;;;;;;8.18;5.47;;;;;;;14.64;59.56;101182.41;5050641;28;20650;-52
2023/05/11 06:34:20;;;;;;;8.35;5.30;;;;;;;14.77;59.47;101188.75;5047709;28;20027;-52
2023/05/11 06:36:47;;;;;;;9.77;5.50;;;;;;;14.82;59.26;101184.03;5042046;28;20056;-52
2023/05/11 06:39:12;;;;;;;6.40;4.28;;;;;;;14.93;58.92;101175.44;5041207;28;20120;-54
2023/05/11 06:41:38;;;;;;;8.05;4.88;;;;;;;15.16;58.83;101182.09;5046202;28;20107;-53
2023/05/11 06:44:04;;;;;;;9.85;4.82;;;;;;;15.34;58.68;101184.63;5041204;28;20033;-53
2023/05/11 06:46:30;;;;;;;5.43;4.32;;;;;;;15.33;56.79;101180.25;5034649;28;20034;-54
2023/05/11 06:48:55;;;;;;;7.22;4.28;;;;;;;15.49;57.31;101178.38;5037405;28;20030;-53
2023/05/11 06:51:21;;;;;;;8.55;5.20;;;;;;;15.59;55.73;101182.25;5040583;28;20426;-53
2023/05/11 06:53:47;;;;;;;5.82;4.75;;;;;;;15.70;54.99;101172.75;5051263;28;20078;-54
2023/05/11 06:56:12;;;;;;;7.13;4.78;;;;;;;15.71;55.34;101182.44;5038701;28;20103;-54
2023/05/11 06:58:38;;;;;;;11.27;4.60;;;;;;;15.77;54.51;101180.31;5042239;28;20493;-53
2023/05/11 07:01:06;;;;;;;7.15;4.10;;;;;;;15.87;54.85;101179.72;5053100;28;20467;-53
2023/05/11 07:03:35;;;;;;;6.55;4.72;;;;;;;15.81;54.86;101180.97;5053478;28;20029;-53
2023/05/11 07:06:00;;;;;;;8.05;4.53;;;;;;;15.87;55.12;101175.28;5050581;28;20463;-54
2023/05/11 07:08:25;;;;;;;10.90;4.32;;;;;;;15.92;54.41;101173.19;5049425;28;20037;-53
2023/05/11 07:10:51;;;;;;;16.20;4.43;;;;;;;16.03;54.20;101176.97;5044165;28;20554;-52
2023/05/11 07:13:16;;;;;;;6.28;4.40;;;;;;;16.16;53.08;101180.59;5045213;28;20040;-54
2023/05/11 07:15:42;;;;;;;10.07;4.85;;;;;;;16.26;53.42;101171.06;5053719;28;20025;-52
2023/05/11 07:18:07;;;;;;;10.02;4.65;;;;;;;16.50;53.07;101178.47;5053491;28;20464;-52
2023/05/11 07:20:35;;;;;;;10.00;4.53;;;;;;;16.61;52.29;101181.31;5051717;28;20187;-52
2023/05/11 07:23:01;;;;;;;6.03;4.13;;;;;;;16.50;51.99;101181.16;5041723;28;20697;-53
2023/05/11 07:25:26;;;;;;;8.88;4.88;;;;;;;16.71;52.02;101173.56;5052213;28;20112;-54
2023/05/11 07:27:52;;;;;;;7.75;4.05;;;;;;;16.89;51.93;101184.91;5042966;28;20116;-52
2023/05/11 07:30:17;;;;;;;7.38;3.78;;;;;;;17.21;51.06;101180.09;5047372;28;20047;-54
2023/05/11 07:32:42;;;;;;;9.00;4.35;;;;;;;17.27;50.99;101178.81;5053674;28;20037;-52
2023/05/11 07:35:08;;;;;;;13.60;4.18;;;;;;;17.38;49.95;101170.09;5044978;28;20040;-52
2023/05/11 07:37:33;;;;;;;9.90;4.07;;;;;;;17.49;50.07;101174.69;5051479;28;20033;-55
2023/05/11 07:39:59;;;;;;;8.27;4.57;;;;;;;17.57;49.42;101181.25;5049533;28;20456;-52
2023/05/11 07:42:24;;;;;;;9.13;4.35;;;;;;;17.47;49.89;101179.28;5042728;28;20037;-52
2023/05/11 07:44:49;;;;;;;6.82;3.50;;;;;;;17.58;49.74;101168.72;5049035;28;20029;-53
2023/05/11 07:47:16;;;;;;;11.07;4.50;;;;;;;17.67;49.27;101176.13;5051857;28;20306;-57
2023/05/11 07:49:42;;;;;;;7.68;3.92;;;;;;;17.72;48.94;101174.00;5053662;28;20111;-55
2023/05/11 07:52:07;;;;;;;12.27;3.70;;;;;;;17.65;49.22;101169.16;5053973;28;20067;-54
2023/05/11 07:54:32;;;;;;;8.93;3.90;;;;;;;17.93;49.12;101168.13;5036019;28;20027;-54
2023/05/11 07:56:58;;;;;;;5.82;3.88;;;;;;;17.97;48.75;101178.50;5052333;28;20087;-54
2023/05/11 07:59:23;;;;;;;7.43;3.90;;;;;;;17.86;49.19;101169.50;5052593;28;20032;-55
2023/05/11 08:01:48;;;;;;;9.13;3.78;;;;;;;17.97;49.73;101177.66;5050019;28;20029;-54
2023/05/11 08:04:14;;;;;;;10.20;4.10;;;;;;;18.09;50.46;101170.59;5040004;28;20021;-54
2023/05/11 08:06:39;;;;;;;7.72;3.50;;;;;;;18.09;48.34;101179.44;5038301;28;20041;-54
2023/05/11 08:09:05;;;;;;;8.02;3.75;;;;;;;18.19;48.35;101181.50;5042820;28;20128;-54
2023/05/11 08:11:30;;;;;;;7.18;3.38;;;;;;;18.37;48.27;101179.31;5039070;28;20021;-54
2023/05/11 08:13:55;;;;;;;7.45;4.20;;;;;;;18.45;48.02;101177.78;5039246;28;20068;-54
2023/05/11 08:16:21;;;;;;;6.63;3.72;;;;;;;18.48;47.75;101171.38;5036708;28;20034;-54
2023/05/11 08:18:46;;;;;;;6.07;3.72;;;;;;;18.55;46.69;101175.31;5046555;28;20025;-54
2023/05/11 08:21:13;;;;;;;11.20;3.80;;;;;;;18.70;45.87;101178.69;5039789;28;20048;-54
2023/05/11 08:23:38;;;;;;;4.30;3.00;;;;;;;18.85;46.05;101182.97;5042911;28;20067;-54
2023/05/11 08:26:04;;;;;;;6.68;3.47;;;;;;;18.77;45.51;101171.94;5041236;28;20560;-54
2023/05/11 08:28:29;;;;;;;4.82;3.45;;;;;;;18.86;45.82;101170.41;5042758;28;20021;-55
2023/05/11 08:30:59;;;;;;;6.45;2.53;;;;;;;18.75;45.08;101183.69;5040772;28;20037;-54
2023/05/11 08:33:26;;;;;;;5.38;3.13;;;;;;;18.94;44.55;101178.72;5040452;28;20053;-53
2023/05/11 08:35:51;;;;;;;8.48;3.22;;;;;;;18.96;43.97;101176.81;5041795;28;20124;-54
2023/05/11 08:38:17;;;;;;;5.47;3.33;;;;;;;18.86;44.55;101181.13;5042293;28;20021;-56
2023/05/11 08:40:46;;;;;;;5.78;3.35;;;;;;;19.12;45.17;101181.00;5044357;28;20128;-55
2023/05/11 08:43:17;;;;;;;11.68;3.30;;;;;;;19.18;44.42;101180.56;5045686;28;20036;-55
2023/05/11 08:45:46;;;;;;;4.82;3.25;;;;;;;19.46;44.57;101165.91;5043438;28;20052;-55
2023/05/11 08:48:14;;;;;;;6.20;3.00;;;;;;;19.67;43.93;101179.50;5045016;28;20092;-55
2023/05/11 08:50:40;;;;;;;11.45;3.70;;;;;;;19.80;43.13;101166.03;5042941;28;20118;-55
2023/05/11 08:53:05;;;;;;;4.90;2.95;;;;;;;19.74;42.87;101178.03;5043087;28;20556;-55
2023/05/11 08:55:32;;;;;;;8.98;3.38;;;;;;;19.76;43.20;101175.25;5044162;28;20052;-54
2023/05/11 08:57:59;;;;;;;5.65;3.50;;;;;;;19.62;43.16;101174.47;5040232;28;20764;-54
2023/05/11 09:00:27;;;;;;;5.90;3.88;;;;;;;19.77;42.88;101174.31;5041459;28;20108;-51
2023/05/11 09:02:53;;;;;;;6.97;3.30;;;;;;;19.90;42.58;101169.69;5035169;28;20037;-52
2023/05/11 09:05:19;;;;;;;4.50;3.85;;;;;;;20.08;41.60;101169.22;5052657;28;20094;-52
2023/05/11 09:07:46;;;;;;;7.85;3.35;;;;;;;20.15;41.63;101165.06;5048241;28;20037;-53
2023/05/11 09:10:12;;;;;;;5.85;2.92;;;;;;;20.30;42.02;101163.84;5055200;28;20075;-52
2023/05/11 09:12:37;;;;;;;7.50;3.80;;;;;;;20.47;41.53;101167.00;5046229;28;20033;-53
2023/05/11 09:15:03;;;;;;;11.73;3.22;;;;;;;20.39;41.46;101161.41;5051983;28;20068;-52
2023/05/11 09:17:28;;;;;;;8.13;3.75;;;;;;;20.40;41.05;101165.78;5054318;28;20040;-53
2023/05/11 09:20:06;;;;;;;6.13;3.35;;;;;;;20.43;41.10;101157.47;5045565;28;20088;-52
2023/05/11 09:22:41;;;;;;;5.63;3.50;;;;;;;20.48;40.93;101166.00;5047187;28;20037;-53
2023/05/11 09:25:11;;;;;;;6.25;3.28;;;;;;;20.51;41.29;101171.13;5055483;28;20021;-54
2023/05/11 09:27:43;;;;;;;10.02;3.78;;;;;;;20.36;41.22;101168.69;5039150;28;20104;-51
2023/05/11 09:30:17;;;;;;;12.18;3.13;;;;;;;20.38;41.40;101157.84;5054526;28;20033;-52
2023/05/11 09:32:49;;;;;;;5.20;2.85;;;;;;;20.39;40.60;101158.72;5045829;28;20037;-52
2023/05/11 09:35:19;;;;;;;5.72;2.70;;;;;;;20.53;40.58;101166.47;5056369;28;20021;-53
2023/05/11 09:38:06;;;;;;;5.88;2.92;;;;;;;20.67;40.48;101160.88;5043635;28;20457;-53
2023/05/11 09:40:34;;;;;;;5.15;3.28;;;;;;;20.70;40.07;101157.94;5036930;28;20033;-53
2023/05/11 09:43:01;;;;;;;8.90;2.83;;;;;;;20.84;39.46;101161.31;5056205;28;20025;-52
2023/05/11 09:45:39;;;;;;;5.28;2.95;;;;;;;21.00;39.77;101166.28;5048563;28;20034;-53
2023/05/11 09:48:07;;;;;;;5.57;2.97;;;;;;;21.09;38.92;101150.22;5050066;28;20032;-52
2023/05/11 09:50:34;;;;;;;7.10;2.75;;;;;;;21.17;38.54;101157.66;5050139;28;20823;-54
2023/05/11 09:53:00;;;;;;;4.50;2.78;;;;;;;21.36;39.34;101142.66;5050560;28;20043;-52
2023/05/11 09:55:25;;;;;;;5.35;2.55;;;;;;;21.63;38.77;101152.91;5039291;28;20132;-52
2023/05/11 09:57:56;;;;;;;5.20;2.65;;;;;;;21.67;37.98;101151.66;5048989;28;20128;-52
2023/05/11 10:00:24;;;;;;;6.57;2.78;;;;;;;21.99;37.39;101153.41;5055538;28;20043;-54
2023/05/11 10:03:04;;;;;;;7.35;2.60;;;;;;;22.01;36.70;101154.09;5040932;28;20777;-52
2023/05/11 10:05:31;;;;;;;5.97;2.53;;;;;;;21.79;36.92;101152.41;5049333;28;20037;-53
2023/05/11 10:08:06;;;;;;;8.40;3.28;;;;;;;21.85;36.57;101151.91;5045985;28;20037;-52
2023/05/11 10:10:33;;;;;;;7.57;3.00;;;;;;;22.21;36.31;101141.56;5052487;28;20032;-52
2023/05/11 10:13:01;;;;;;;2.95;2.20;;;;;;;21.95;35.69;101138.50;5043771;28;20025;-53
2023/05/11 10:15:34;;;;;;;5.28;2.25;;;;;;;22.33;35.47;101131.56;5052198;28;20132;-53
2023/05/11 10:18:00;;;;;;;6.25;2.10;;;;;;;22.33;34.79;101134.25;5045529;28;20032;-53
2023/05/11 10:20:26;;;;;;;11.85;3.00;;;;;;;22.27;34.05;101130.25;5054183;28;20048;-52
2023/05/11 10:22:52;;;;;;;6.65;1.77;;;;;;;22.30;33.34;101140.78;5049615;28;20036;-53
2023/05/11 10:25:22;;;;;;;3.92;2.10;;;;;;;22.27;33.48;101140.19;5053963;28;20029;-53
2023/05/11 10:27:47;;;;;;;5.25;1.85;;;;;;;22.12;33.21;101132.47;5048569;28;20424;-52
2023/05/11 10:30:13;;;;;;;8.57;2.10;;;;;;;22.28;33.61;101137.34;5054424;28;20033;-52
2023/05/11 10:32:39;;;;;;;4.15;1.65;;;;;;;22.33;32.11;101118.09;5040755;28;20036;-54
2023/05/11 10:35:06;;;;;;;3.88;2.15;;;;;;;22.43;32.80;101127.06;5032455;28;20092;-53
2023/05/11 10:37:32;;;;;;;4.03;2.03;;;;;;;22.97;32.04;101126.69;5050901;28;20056;-53
2023/05/11 10:39:58;;;;;;;3.13;1.80;;;;;;;23.31;31.63;101128.97;5049297;28;20155;-53
2023/05/11 10:43:09;;;;;;;3.03;1.40;;;;;;;23.24;29.21;101115.22;5032097;28;20033;-53
2023/05/11 10:46:07;;;;;;;7.85;1.77;;;;;;;23.66;29.79;101133.75;5044062;28;20028;-53
2023/05/11 10:49:09;;;;;;;4.65;2.38;;;;;;;24.26;28.13;101122.59;5046148;28;20048;-53
2023/05/11 10:51:37;;;;;;;4.20;2.13;;;;;;;24.59;28.34;101119.44;5049441;28;20029;-52
2023/05/11 10:54:08;;;;;;;10.18;1.73;;;;;;;24.56;27.82;101109.78;5038177;28;20021;-53
2023/05/11 10:56:52;;;;;;;;;;;;;;;25.72;26.76;101117.84;5041632;28;20500;-51
2023/05/11 10:59:36;;;;;;;2.63;1.60;;;;;;;26.21;24.54;101111.84;5046844;28;19913;-53
2023/05/11 11:02:02;;;;;;;4.47;1.70;;;;;;;27.54;23.74;101109.13;5054997;28;20133;-53
2023/05/11 11:04:49;;;;;;;2.70;1.42;;;;;;;28.33;23.62;101114.63;5042637;28;20025;-53
2023/05/11 11:07:17;;;;;;;3.45;1.73;;;;;;;28.22;23.04;101115.03;5035245;28;20049;-52
2023/05/11 11:09:53;;;;;;;8.57;1.48;;;;;;;28.45;24.07;101116.97;5030026;28;20037;-54
2023/05/11 11:12:20;;;;;;;4.13;1.40;;;;;;;28.92;22.68;101107.84;5040816;28;20029;-52
2023/05/11 11:14:52;;;;;;;3.90;1.83;;;;;;;28.65;22.15;101118.22;5043441;28;20053;-52
2023/05/11 11:17:24;;;;;;;7.93;2.08;;;;;;;29.19;21.17;101120.03;5031909;28;20472;-53
2023/05/11 11:19:49;;;;;;;3.17;1.33;;;;;;;28.17;21.75;101110.13;5032100;28;20078;-51
2023/05/11 11:22:33;;;;;;;2.03;1.42;;;;;;;27.80;22.59;101116.19;5044601;28;20133;-53
2023/05/11 11:24:59;;;;;;;2.92;1.60;;;;;;;28.22;22.54;101115.03;5041492;28;20067;-52